createdAt,value
2018-08-22T00:02:03.339Z,21.20
2018-08-22T00:06:11.712Z,21.10
2018-08-22T00:10:20.049Z,21.20
2018-08-22T00:14:28.339Z,21.00
2018-08-22T00:18:36.675Z,21.10
2018-08-22T00:22:44.988Z,21.00
2018-08-22T00:26:53.341Z,21.00
2018-08-22T00:31:01.666Z,20.90
2018-08-22T00:35:09.994Z,20.90
2018-08-22T00:39:18.309Z,20.80
2018-08-22T00:43:26.578Z,20.70
2018-08-22T00:47:34.869Z,20.70
2018-08-22T00:51:43.184Z,20.70
2018-08-22T00:55:51.470Z,20.70
2018-08-22T00:59:59.835Z,20.50
2018-08-22T01:04:08.187Z,20.50
2018-08-22T01:08:16.497Z,20.50
2018-08-22T01:12:24.802Z,20.50
2018-08-22T01:16:33.105Z,20.50
2018-08-22T01:20:41.363Z,20.50
2018-08-22T01:24:49.847Z,20.40
2018-08-22T01:28:58.195Z,20.30
2018-08-22T01:33:06.526Z,20.30
2018-08-22T01:37:14.805Z,20.20
2018-08-22T01:41:23.106Z,20.20
2018-08-22T01:45:31.387Z,20.20
2018-08-22T01:49:39.683Z,20.10
2018-08-22T01:53:47.989Z,20.10
2018-08-22T01:57:56.311Z,20.10
2018-08-22T02:02:04.637Z,20.00
2018-08-22T02:06:12.914Z,20.00
2018-08-22T02:10:21.632Z,20.10
2018-08-22T02:14:29.958Z,20.00
2018-08-22T02:18:38.259Z,20.00
2018-08-22T02:22:46.551Z,20.00
2018-08-22T02:26:54.842Z,20.00
2018-08-22T02:31:03.152Z,19.90
2018-08-22T02:35:11.423Z,19.90
2018-08-22T02:39:19.727Z,19.80
2018-08-22T02:43:28.039Z,19.80
2018-08-22T02:47:36.315Z,19.70
2018-08-22T02:51:44.627Z,19.70
2018-08-22T02:55:52.915Z,19.80
2018-08-22T03:00:01.240Z,19.70
2018-08-22T03:04:09.591Z,19.60
2018-08-22T03:08:17.902Z,19.60
2018-08-22T03:12:26.230Z,19.50
2018-08-22T03:16:34.557Z,19.50
2018-08-22T03:20:42.855Z,19.50
2018-08-22T03:24:51.198Z,19.50
2018-08-22T03:28:59.502Z,19.50
2018-08-22T03:33:07.850Z,19.40
2018-08-22T03:37:16.196Z,19.50
2018-08-22T03:41:24.510Z,19.50
2018-08-22T03:45:32.987Z,19.40
2018-08-22T03:49:41.321Z,19.40
2018-08-22T03:53:49.654Z,19.30
2018-08-22T03:57:57.931Z,19.30
2018-08-22T04:02:06.300Z,19.30
2018-08-22T04:06:14.642Z,19.30
2018-08-22T04:10:22.975Z,19.30
2018-08-22T04:14:31.303Z,19.30
2018-08-22T04:18:39.654Z,19.30
2018-08-22T04:22:47.957Z,19.30
2018-08-22T04:26:56.304Z,19.20
2018-08-22T04:31:04.645Z,19.20
2018-08-22T04:35:12.937Z,19.20
2018-08-22T04:39:21.266Z,19.20
2018-08-22T04:47:37.652Z,19.20
2018-08-22T04:51:45.989Z,19.10
2018-08-22T04:55:56.421Z,19.00
2018-08-22T05:00:05.840Z,19.00
2018-08-22T05:04:14.193Z,19.00
2018-08-22T05:08:22.503Z,19.00
2018-08-22T05:12:30.843Z,19.00
2018-08-22T05:16:39.177Z,19.10
2018-08-22T05:20:47.462Z,19.20
2018-08-22T05:24:55.752Z,19.10
2018-08-22T05:29:04.056Z,19.10
2018-08-22T05:33:12.352Z,19.10
2018-08-22T05:37:20.686Z,19.20
2018-08-22T05:41:28.967Z,19.30
2018-08-22T05:45:37.287Z,19.30
2018-08-22T05:49:45.591Z,19.30
2018-08-22T05:53:53.993Z,19.40
2018-08-22T05:58:02.387Z,19.40
2018-08-22T06:02:10.670Z,19.50
2018-08-22T06:06:18.957Z,19.40
2018-08-22T06:10:27.290Z,19.50
2018-08-22T06:14:35.635Z,19.50
2018-08-22T06:18:43.929Z,19.60
2018-08-22T06:22:52.322Z,19.70
2018-08-22T06:27:00.644Z,19.80
2018-08-22T06:31:08.947Z,19.90
2018-08-22T06:35:17.242Z,19.90
2018-08-22T06:39:25.639Z,20.00
2018-08-22T06:43:33.932Z,20.10
2018-08-22T06:47:42.255Z,20.20
2018-08-22T06:51:50.588Z,20.40
2018-08-22T06:55:58.871Z,20.60
2018-08-22T07:00:07.215Z,20.70
2018-08-22T07:04:15.547Z,20.90
2018-08-22T07:08:23.868Z,21.10
2018-08-22T07:12:32.229Z,21.10
2018-08-22T07:16:40.550Z,21.10
2018-08-22T07:20:48.945Z,21.40
2018-08-22T07:24:57.192Z,21.40
2018-08-22T07:29:05.720Z,21.50
2018-08-22T07:33:14.112Z,21.60
2018-08-22T07:37:22.546Z,21.80
2018-08-22T07:41:30.975Z,21.90
2018-08-22T07:45:39.283Z,21.90
2018-08-22T07:49:47.611Z,22.10
2018-08-22T07:53:55.956Z,22.00
2018-08-22T07:58:04.536Z,22.30
2018-08-22T08:02:12.970Z,22.40
2018-08-22T08:06:21.331Z,22.50
2018-08-22T08:10:32.845Z,22.70
2018-08-22T08:14:41.241Z,22.70
2018-08-22T08:18:49.553Z,22.80
2018-08-22T08:22:57.867Z,22.80
2018-08-22T08:27:06.185Z,22.90
2018-08-22T08:31:14.615Z,23.10
2018-08-22T08:35:22.887Z,23.40
2018-08-22T08:43:39.255Z,23.70
2018-08-22T08:47:47.594Z,23.80
2018-08-22T08:51:58.337Z,24.00
2018-08-22T08:56:06.765Z,24.00
2018-08-22T09:00:15.087Z,24.20
2018-08-22T09:04:23.417Z,24.30
2018-08-22T09:08:31.749Z,24.40
2018-08-22T09:12:40.091Z,24.70
2018-08-22T09:16:48.445Z,24.80
2018-08-22T09:20:56.803Z,24.90
2018-08-22T09:25:05.114Z,25.10
2018-08-22T09:29:13.407Z,25.40
2018-08-22T09:33:21.738Z,25.60
2018-08-22T09:37:30.047Z,25.90
2018-08-22T09:41:38.450Z,26.00
2018-08-22T09:45:46.802Z,25.80
2018-08-22T09:49:55.168Z,25.90
2018-08-22T09:54:03.499Z,26.20
2018-08-22T09:58:11.862Z,26.20
2018-08-22T10:02:20.166Z,26.30
2018-08-22T10:06:39.325Z,26.50
2018-08-22T10:10:47.682Z,26.60
2018-08-22T10:14:56.027Z,26.60
2018-08-22T10:19:04.541Z,26.80
2018-08-22T10:23:12.935Z,27.00
2018-08-22T10:27:21.308Z,27.10
2018-08-22T10:31:29.628Z,27.20
2018-08-22T10:35:37.986Z,27.30
2018-08-22T10:39:46.321Z,27.30
2018-08-22T10:43:54.625Z,27.60
2018-08-22T10:48:03.043Z,27.90
2018-08-22T10:52:11.304Z,28.10
2018-08-22T10:56:19.643Z,28.00
2018-08-22T11:00:27.986Z,27.90
2018-08-22T11:04:36.365Z,28.20
2018-08-22T11:08:44.799Z,28.40
2018-08-22T11:12:53.137Z,28.50
2018-08-22T11:21:20.831Z,28.30
2018-08-22T11:25:40.542Z,28.20
2018-08-22T11:30:00.212Z,28.40
2018-08-22T11:34:19.832Z,28.40
2018-08-22T11:38:28.106Z,28.60
2018-08-22T11:42:36.438Z,28.70
2018-08-22T11:46:44.756Z,28.90
2018-08-22T11:50:53.087Z,29.10
2018-08-22T11:55:01.382Z,28.90
2018-08-22T11:59:09.702Z,28.80
2018-08-22T12:03:18.115Z,28.90
2018-08-22T12:07:26.449Z,29.20
2018-08-22T12:11:34.813Z,29.40
2018-08-22T12:15:43.150Z,29.60
2018-08-22T12:19:52.654Z,29.80
2018-08-22T12:24:00.975Z,29.80
2018-08-22T12:28:09.266Z,29.70
2018-08-22T12:32:17.595Z,29.70
2018-08-22T12:36:25.947Z,29.80
2018-08-22T12:40:34.265Z,29.70
2018-08-22T12:44:42.583Z,29.60
2018-08-22T12:48:50.878Z,29.80
2018-08-22T12:52:59.214Z,29.80
2018-08-22T12:57:07.545Z,29.70
2018-08-22T13:01:15.925Z,29.80
2018-08-22T13:05:24.258Z,29.60
2018-08-22T13:09:32.549Z,29.50
2018-08-22T13:13:40.868Z,29.20
2018-08-22T13:17:49.157Z,29.00
2018-08-22T13:21:57.469Z,29.10
2018-08-22T13:26:05.798Z,28.80
2018-08-22T13:30:14.394Z,28.60
2018-08-22T13:34:22.737Z,29.00
2018-08-22T13:38:31.043Z,29.30
2018-08-22T13:42:39.362Z,29.60
2018-08-22T13:46:47.913Z,29.50
2018-08-22T13:50:56.305Z,29.70
2018-08-22T13:55:04.604Z,29.90
2018-08-22T13:59:12.878Z,29.90
2018-08-22T14:03:21.257Z,29.90
2018-08-22T14:07:29.556Z,29.60
2018-08-22T14:11:37.844Z,29.40
2018-08-22T14:15:46.175Z,29.30
2018-08-22T14:19:54.458Z,29.60
2018-08-22T14:24:02.808Z,29.60
2018-08-22T14:32:19.170Z,29.70
2018-08-22T14:36:27.487Z,29.60
2018-08-22T14:40:35.868Z,29.20
2018-08-22T14:44:44.171Z,28.90
2018-08-22T14:48:52.491Z,29.10
2018-08-22T14:53:00.801Z,29.30
2018-08-22T14:57:09.116Z,29.50
2018-08-22T15:01:17.400Z,29.60
2018-08-22T15:05:25.715Z,29.30
2018-08-22T15:09:34.045Z,29.30
2018-08-22T15:13:42.348Z,29.30
2018-08-22T15:17:50.614Z,28.90
2018-08-22T15:21:58.974Z,28.90
2018-08-22T15:26:07.281Z,28.60
2018-08-22T15:30:15.548Z,28.60
2018-08-22T15:34:28.673Z,28.90
2018-08-22T15:38:36.970Z,29.00
2018-08-22T15:42:45.230Z,29.00
2018-08-22T15:46:53.549Z,28.90
2018-08-22T15:51:01.977Z,28.80
2018-08-22T15:55:12.569Z,28.90
2018-08-22T15:59:20.844Z,28.60
2018-08-22T16:03:29.166Z,28.70
2018-08-22T16:07:37.509Z,28.50
2018-08-22T16:11:45.927Z,28.50
2018-08-22T16:15:55.583Z,28.50
2018-08-22T16:20:03.926Z,28.40
2018-08-22T16:24:12.352Z,28.40
2018-08-22T16:28:20.935Z,28.30
2018-08-22T16:32:29.307Z,28.50
2018-08-22T16:36:39.251Z,28.30
2018-08-22T16:40:52.202Z,28.30
2018-08-22T16:45:00.498Z,28.40
2018-08-22T16:49:08.803Z,28.20
2018-08-22T16:53:17.103Z,28.10
2018-08-22T16:57:26.017Z,28.00
2018-08-22T17:01:34.339Z,28.00
2018-08-22T17:05:42.640Z,27.90
2018-08-22T17:09:51.051Z,27.90
2018-08-22T17:13:59.418Z,27.70
2018-08-22T17:18:07.743Z,27.70
2018-08-22T17:22:16.148Z,27.40
2018-08-22T17:26:24.794Z,27.40
2018-08-22T17:30:39.040Z,27.20
2018-08-22T17:34:47.244Z,27.10
2018-08-22T17:38:56.666Z,26.80
2018-08-22T17:43:05.019Z,26.90
2018-08-22T17:47:13.317Z,26.70
2018-08-22T17:51:21.650Z,26.50
2018-08-22T17:55:30.025Z,26.50
2018-08-22T17:59:38.382Z,26.50
2018-08-22T18:03:46.722Z,26.50
2018-08-22T18:07:55.066Z,26.30
2018-08-22T18:12:03.334Z,26.40
2018-08-22T18:16:11.658Z,26.30
2018-08-22T18:20:19.999Z,26.20
2018-08-22T18:24:28.353Z,26.30
2018-08-22T18:28:36.663Z,26.10
2018-08-22T18:32:45.183Z,26.10
2018-08-22T18:36:53.485Z,26.00
2018-08-22T18:41:07.369Z,26.00
2018-08-22T18:45:15.689Z,25.90
2018-08-22T18:49:24.003Z,25.70
2018-08-22T18:53:32.320Z,25.70
2018-08-22T18:57:40.667Z,25.60
2018-08-22T19:01:49.024Z,25.50
2018-08-22T19:05:57.318Z,25.50
2018-08-22T19:10:05.646Z,25.50
2018-08-22T19:14:14.002Z,25.20
2018-08-22T19:18:22.353Z,25.10
2018-08-22T19:22:30.699Z,25.00
2018-08-22T19:26:39.113Z,25.00
2018-08-22T19:30:47.530Z,24.90
2018-08-22T19:34:57.102Z,24.70
2018-08-22T19:39:06.527Z,24.50
2018-08-22T19:43:14.854Z,24.50
2018-08-22T19:47:23.167Z,24.60
2018-08-22T19:51:31.497Z,24.40
2018-08-22T19:55:39.867Z,24.20
2018-08-22T19:59:48.192Z,24.20
2018-08-22T20:03:57.098Z,24.10
2018-08-22T20:08:05.580Z,24.20
2018-08-22T20:12:13.910Z,24.00
2018-08-22T20:16:23.194Z,24.00
2018-08-22T20:20:31.544Z,23.90
2018-08-22T20:24:39.861Z,23.90
2018-08-22T20:28:52.882Z,23.90
2018-08-22T20:33:05.711Z,23.80
2018-08-22T20:37:14.018Z,23.80
2018-08-22T20:41:22.455Z,23.80
2018-08-22T20:45:37.948Z,23.70
2018-08-22T20:49:48.650Z,23.70
2018-08-22T20:54:02.402Z,23.60
2018-08-22T20:58:21.047Z,23.60
2018-08-22T21:02:29.513Z,23.50
2018-08-22T21:06:37.757Z,23.40
2018-08-22T21:10:46.108Z,23.30
2018-08-22T21:14:54.382Z,23.20
2018-08-22T21:19:02.857Z,23.20
2018-08-22T21:23:11.154Z,23.20
2018-08-22T21:27:19.502Z,23.10
2018-08-22T21:31:27.813Z,23.10
2018-08-22T21:35:36.126Z,23.00
2018-08-22T21:39:44.422Z,23.00
2018-08-22T21:43:52.751Z,23.00
2018-08-22T21:48:13.217Z,22.90
2018-08-22T21:52:21.559Z,22.90
2018-08-22T21:56:29.811Z,22.90
2018-08-22T22:00:38.283Z,22.90
2018-08-22T22:04:46.616Z,22.80
2018-08-22T22:08:55.059Z,22.80
2018-08-22T22:13:03.362Z,22.60
2018-08-22T22:17:11.693Z,22.60
2018-08-22T22:21:19.964Z,22.70
2018-08-22T22:25:28.327Z,22.50
2018-08-22T22:29:36.688Z,22.50
2018-08-22T22:33:51.200Z,22.50
2018-08-22T22:38:13.975Z,22.60
2018-08-22T22:42:24.991Z,22.40
2018-08-22T22:46:33.275Z,22.30
2018-08-22T22:50:41.593Z,22.20
2018-08-22T22:54:50.462Z,22.20
2018-08-22T22:58:58.815Z,22.20
2018-08-22T23:03:07.646Z,22.10
2018-08-22T23:07:21.323Z,22.00
2018-08-22T23:11:29.624Z,22.10
2018-08-22T23:15:37.969Z,21.90
2018-08-22T23:19:46.308Z,21.80
2018-08-22T23:23:54.629Z,21.90
2018-08-22T23:28:02.979Z,21.90
2018-08-22T23:32:11.283Z,21.90
2018-08-22T23:36:19.598Z,21.80
2018-08-22T23:40:29.206Z,21.70
2018-08-22T23:44:42.431Z,21.70
2018-08-22T23:48:57.991Z,21.60
2018-08-22T23:53:06.248Z,21.50
2018-08-22T23:57:19.458Z,21.50
